createdAt,value
2022-08-18T00:01:05.571Z,8.77
2022-08-18T00:03:56.064Z,9.67
2022-08-18T00:06:19.645Z,10.70
2022-08-18T00:08:46.237Z,9.27
2022-08-18T00:11:12.847Z,9.23
2022-08-18T00:13:39.494Z,10.00
2022-08-18T00:16:06.402Z,9.37
2022-08-18T00:18:32.965Z,9.27
2022-08-18T00:21:00.215Z,9.37
2022-08-18T00:23:28.829Z,9.20
2022-08-18T00:25:57.662Z,9.10
2022-08-18T00:28:26.143Z,9.70
2022-08-18T00:30:53.987Z,9.03
2022-08-18T00:33:21.268Z,9.60
2022-08-18T00:35:48.092Z,9.70
2022-08-18T00:38:23.279Z,10.03
2022-08-18T00:40:52.194Z,9.40
2022-08-18T00:43:25.631Z,9.83
2022-08-18T00:45:52.349Z,9.57
2022-08-18T00:48:19.004Z,9.73
2022-08-18T00:50:57.042Z,9.47
2022-08-18T00:53:45.956Z,10.30
2022-08-18T00:56:22.312Z,9.73
2022-08-18T00:58:54.298Z,9.70
2022-08-18T01:01:23.518Z,9.37
2022-08-18T01:03:53.868Z,10.50
2022-08-18T01:06:35.891Z,9.57
2022-08-18T01:09:03.344Z,9.23
2022-08-18T01:11:30.170Z,10.00
2022-08-18T01:13:57.964Z,9.60
2022-08-18T01:16:52.396Z,9.70
2022-08-18T01:19:44.492Z,10.60
2022-08-18T01:22:33.417Z,10.17
2022-08-18T01:25:19.892Z,10.03
2022-08-18T01:27:46.982Z,10.03
2022-08-18T01:30:16.039Z,10.07
2022-08-18T01:32:45.898Z,10.40
2022-08-18T01:35:15.659Z,10.27
2022-08-18T01:37:42.499Z,9.70
2022-08-18T01:41:21.329Z,10.70
2022-08-18T01:42:57.626Z,10.07
2022-08-18T01:45:24.453Z,10.97
2022-08-18T01:47:51.047Z,9.90
2022-08-18T01:50:18.166Z,10.50
2022-08-18T01:52:45.233Z,9.90
2022-08-18T01:55:11.966Z,10.60
2022-08-18T01:57:44.839Z,10.23
2022-08-18T02:00:14.620Z,10.60
2022-08-18T02:02:42.104Z,10.60
2022-08-18T02:05:21.540Z,10.77
2022-08-18T02:07:48.239Z,10.37
2022-08-18T02:10:20.745Z,10.77
2022-08-18T02:12:47.345Z,11.27
2022-08-18T02:15:14.024Z,10.97
2022-08-18T02:17:45.146Z,10.67
2022-08-18T02:20:14.287Z,10.67
2022-08-18T02:22:41.815Z,11.37
2022-08-18T02:25:09.372Z,11.20
2022-08-18T02:27:36.016Z,11.03
2022-08-18T02:30:06.478Z,10.73
2022-08-18T02:32:33.283Z,10.73
2022-08-18T02:35:00.337Z,11.30
2022-08-18T02:37:26.935Z,10.53
2022-08-18T02:39:53.742Z,10.97
2022-08-18T02:42:20.430Z,10.90
2022-08-18T02:44:46.989Z,10.53
2022-08-18T02:47:13.619Z,11.57
2022-08-18T02:49:40.405Z,10.97
2022-08-18T02:52:07.324Z,11.13
2022-08-18T02:54:35.180Z,10.27
2022-08-18T02:57:06.757Z,11.47
2022-08-18T02:59:33.630Z,11.13
2022-08-18T03:02:00.301Z,11.70
2022-08-18T03:04:30.195Z,11.03
2022-08-18T03:06:59.593Z,11.63
2022-08-18T03:09:26.598Z,11.17
2022-08-18T03:11:53.595Z,11.17
2022-08-18T03:14:20.417Z,11.63
2022-08-18T03:16:54.029Z,11.23
2022-08-18T03:19:26.463Z,11.77
2022-08-18T03:21:53.292Z,11.47
2022-08-18T03:24:22.606Z,11.83
2022-08-18T03:26:51.246Z,11.30
2022-08-18T03:29:18.025Z,11.40
2022-08-18T03:31:45.511Z,11.17
2022-08-18T03:34:12.782Z,12.57
2022-08-18T03:36:39.891Z,11.23
2022-08-18T03:39:09.031Z,11.43
2022-08-18T03:41:58.734Z,12.27
2022-08-18T03:44:25.145Z,11.03
2022-08-18T03:46:51.883Z,11.10
2022-08-18T03:49:18.801Z,11.50
2022-08-18T03:51:47.094Z,12.37
2022-08-18T03:54:15.900Z,12.53
2022-08-18T03:56:44.301Z,12.07
2022-08-18T03:59:18.048Z,11.60
2022-08-18T04:01:46.355Z,11.97
2022-08-18T04:04:15.662Z,12.43
2022-08-18T04:06:45.611Z,12.90
2022-08-18T04:09:14.609Z,12.13
2022-08-18T04:11:45.073Z,11.47
2022-08-18T04:14:14.212Z,12.33
2022-08-18T04:16:40.980Z,11.93
2022-08-18T04:19:08.843Z,12.57
2022-08-18T04:21:40.685Z,11.27
2022-08-18T04:24:08.300Z,11.83
2022-08-18T04:26:38.224Z,12.17
2022-08-18T04:29:06.966Z,11.87
2022-08-18T04:31:33.785Z,11.63
2022-08-18T04:34:01.249Z,12.00
2022-08-18T04:36:29.816Z,12.17
2022-08-18T04:38:56.856Z,12.20
2022-08-18T04:41:27.503Z,11.67
2022-08-18T04:43:55.763Z,12.00
2022-08-18T04:46:23.924Z,12.03
2022-08-18T04:48:52.319Z,12.23
2022-08-18T04:52:34.441Z,11.67
2022-08-18T04:54:07.331Z,12.10
2022-08-18T04:56:37.303Z,11.93
2022-08-18T04:59:09.506Z,12.27
2022-08-18T05:01:45.720Z,12.50
2022-08-18T05:04:14.358Z,11.97
2022-08-18T05:06:43.424Z,12.23
2022-08-18T05:09:11.260Z,11.83
2022-08-18T05:11:38.426Z,12.30
2022-08-18T05:14:08.994Z,11.77
2022-08-18T05:16:47.846Z,12.13
2022-08-18T05:19:22.106Z,11.87
2022-08-18T05:21:51.511Z,12.03
2022-08-18T05:24:20.009Z,12.10
2022-08-18T05:26:46.712Z,11.73
2022-08-18T05:29:19.015Z,11.63
2022-08-18T05:31:47.112Z,11.97
2022-08-18T05:34:13.908Z,11.73
2022-08-18T05:36:49.527Z,11.20
2022-08-18T05:39:19.213Z,12.37
2022-08-18T05:41:56.881Z,11.53
2022-08-18T05:44:31.374Z,12.53
2022-08-18T05:47:07.006Z,12.17
2022-08-18T05:49:34.929Z,13.03
2022-08-18T05:52:05.327Z,12.17
2022-08-18T05:54:57.785Z,12.43
2022-08-18T05:57:25.589Z,12.30
2022-08-18T05:59:52.735Z,12.30
2022-08-18T06:02:31.999Z,11.90
2022-08-18T06:05:03.880Z,12.90
2022-08-18T06:07:46.903Z,12.13
2022-08-18T06:10:14.783Z,12.33
2022-08-18T06:12:46.883Z,12.50
2022-08-18T06:15:24.191Z,11.97
2022-08-18T06:18:24.749Z,12.57
2022-08-18T06:21:04.375Z,12.20
2022-08-18T06:23:47.051Z,12.17
2022-08-18T06:26:40.295Z,12.13
2022-08-18T06:29:28.198Z,12.53
2022-08-18T06:32:28.536Z,11.60
2022-08-18T06:35:03.441Z,11.50
2022-08-18T06:38:16.042Z,11.97
2022-08-18T06:40:42.679Z,11.57
2022-08-18T06:43:12.681Z,11.57
2022-08-18T06:45:40.582Z,10.63
2022-08-18T06:48:15.305Z,11.07
2022-08-18T06:51:00.397Z,10.77
2022-08-18T06:54:09.308Z,11.07
2022-08-18T06:56:39.001Z,9.80
2022-08-18T06:59:30.640Z,10.07
2022-08-18T07:02:37.778Z,9.97
2022-08-18T07:05:19.671Z,9.30
2022-08-18T07:07:47.524Z,9.27
2022-08-18T07:10:14.067Z,9.30
2022-08-18T07:12:40.726Z,8.93
2022-08-18T07:15:07.853Z,8.70
2022-08-18T07:17:42.434Z,8.60
2022-08-18T07:20:21.033Z,8.80
2022-08-18T07:22:57.429Z,9.27
2022-08-18T07:25:34.223Z,8.13
2022-08-18T07:28:02.708Z,8.03
2022-08-18T07:30:33.305Z,7.87
2022-08-18T07:33:20.181Z,8.30
2022-08-18T07:36:03.711Z,8.37
2022-08-18T07:38:42.722Z,8.30
2022-08-18T07:41:35.621Z,8.03
2022-08-18T07:44:25.590Z,7.47
2022-08-18T07:47:00.680Z,7.63
2022-08-18T07:49:32.843Z,7.40
2022-08-18T07:52:06.373Z,7.50
2022-08-18T07:54:57.542Z,7.30
2022-08-18T07:57:30.112Z,6.93
2022-08-18T08:00:23.085Z,8.03
2022-08-18T08:03:15.479Z,7.70
2022-08-18T08:06:01.492Z,7.60
2022-08-18T08:08:43.455Z,8.50
2022-08-18T08:11:22.390Z,8.03
2022-08-18T08:14:26.383Z,8.10
2022-08-18T08:17:05.265Z,7.70
2022-08-18T08:20:00.047Z,7.30
2022-08-18T08:22:55.899Z,8.07
2022-08-18T08:28:33.120Z,7.87
2022-08-18T08:31:18.977Z,7.53
2022-08-18T08:34:05.776Z,7.97
2022-08-18T08:36:36.537Z,7.90
2022-08-18T08:39:15.574Z,7.67
2022-08-18T08:42:00.383Z,7.87
2022-08-18T08:45:01.173Z,7.30
2022-08-18T08:47:35.345Z,6.97
2022-08-18T08:50:08.671Z,6.93
2022-08-18T08:52:41.234Z,6.93
2022-08-18T08:55:14.962Z,6.50
2022-08-18T08:57:48.187Z,6.85
2022-08-18T09:00:15.355Z,7.40
2022-08-18T09:03:12.988Z,7.13
2022-08-18T09:06:03.894Z,7.30
2022-08-18T09:08:36.247Z,6.78
2022-08-18T09:11:33.739Z,6.82
2022-08-18T09:14:24.129Z,6.28
2022-08-18T09:16:56.788Z,6.20
2022-08-18T09:19:45.150Z,6.70
2022-08-18T09:22:26.329Z,6.55
2022-08-18T09:24:54.629Z,6.53
2022-08-18T09:28:09.235Z,6.30
2022-08-18T09:30:37.448Z,6.25
2022-08-18T09:33:34.372Z,6.82
2022-08-18T09:36:32.821Z,6.55
2022-08-18T09:39:36.821Z,6.65
2022-08-18T09:42:10.275Z,6.35
2022-08-18T09:44:46.028Z,6.30
2022-08-18T09:47:32.561Z,6.18
2022-08-18T09:50:04.355Z,5.90
2022-08-18T09:52:33.927Z,6.35
2022-08-18T09:55:10.939Z,5.60
2022-08-18T09:57:43.809Z,6.18
2022-08-18T10:00:14.032Z,6.40
2022-08-18T10:02:41.755Z,6.18
2022-08-18T10:05:15.558Z,6.18
2022-08-18T10:08:21.292Z,6.45
2022-08-18T10:14:23.603Z,6.00
2022-08-18T10:17:23.906Z,5.65
2022-08-18T10:20:25.980Z,5.60
2022-08-18T10:22:54.716Z,5.72
2022-08-18T10:25:35.565Z,5.25
2022-08-18T10:28:05.517Z,4.97
2022-08-18T10:30:56.289Z,5.63
2022-08-18T10:33:58.565Z,5.85
2022-08-18T10:36:59.122Z,5.70
2022-08-18T10:39:41.781Z,5.25
2022-08-18T10:42:30.988Z,5.10
2022-08-18T10:45:25.414Z,4.93
2022-08-18T10:48:19.549Z,5.60
2022-08-18T10:51:03.246Z,5.20
2022-08-18T10:53:43.997Z,5.63
2022-08-18T10:56:11.649Z,5.65
2022-08-18T10:59:16.165Z,5.57
2022-08-18T11:02:27.485Z,5.10
2022-08-18T11:04:59.434Z,5.38
2022-08-18T11:07:30.880Z,5.40
2022-08-18T11:10:30.538Z,5.40
2022-08-18T11:13:08.756Z,5.72
2022-08-18T11:15:42.837Z,5.93
2022-08-18T11:18:31.010Z,5.50
2022-08-18T11:21:22.451Z,5.70
2022-08-18T11:24:09.986Z,5.13
2022-08-18T11:26:52.592Z,5.05
2022-08-18T11:29:29.684Z,5.18
2022-08-18T11:32:04.521Z,5.70
2022-08-18T11:37:49.016Z,5.03
2022-08-18T11:40:51.962Z,5.60
2022-08-18T11:43:41.438Z,5.30
2022-08-18T11:46:28.106Z,5.28
2022-08-18T11:49:15.725Z,4.93
2022-08-18T11:52:03.156Z,5.53
2022-08-18T11:54:50.833Z,5.45
2022-08-18T11:57:31.749Z,5.25
2022-08-18T12:00:00.849Z,5.18
2022-08-18T12:02:28.065Z,4.97
2022-08-18T12:05:08.680Z,5.28
2022-08-18T12:07:37.408Z,5.20
2022-08-18T12:10:25.823Z,5.38
2022-08-18T12:12:54.300Z,5.20
2022-08-18T12:15:43.801Z,5.50
2022-08-18T12:18:28.383Z,5.75
2022-08-18T12:20:58.421Z,5.35
2022-08-18T12:23:25.409Z,5.68
2022-08-18T12:25:52.092Z,5.25
2022-08-18T12:28:19.949Z,5.55
2022-08-18T12:30:56.009Z,5.60
2022-08-18T12:33:25.510Z,5.43
2022-08-18T12:35:52.704Z,5.50
2022-08-18T12:38:19.375Z,5.25
2022-08-18T12:40:46.174Z,5.30
2022-08-18T12:43:13.060Z,6.00
2022-08-18T12:45:40.368Z,5.78
2022-08-18T12:48:08.377Z,5.60
2022-08-18T12:50:50.069Z,5.82
2022-08-18T12:56:20.592Z,5.45
2022-08-18T12:58:47.725Z,5.05
2022-08-18T13:01:17.450Z,5.10
2022-08-18T13:03:45.523Z,5.55
2022-08-18T13:06:31.454Z,5.10
2022-08-18T13:08:58.028Z,5.55
2022-08-18T13:11:25.092Z,5.28
2022-08-18T13:13:56.300Z,5.20
2022-08-18T13:16:30.478Z,5.40
2022-08-18T13:19:06.880Z,5.65
2022-08-18T13:21:39.138Z,5.20
2022-08-18T13:24:09.394Z,5.30
2022-08-18T13:26:40.033Z,5.80
2022-08-18T13:29:10.227Z,6.68
2022-08-18T13:31:38.147Z,6.20
2022-08-18T13:34:11.612Z,6.63
2022-08-18T13:36:46.148Z,6.25
2022-08-18T13:39:15.199Z,7.07
2022-08-18T13:41:43.390Z,6.85
2022-08-18T13:44:13.380Z,7.18
2022-08-18T13:46:46.620Z,7.45
2022-08-18T13:49:18.447Z,7.93
2022-08-18T13:51:52.600Z,9.07
2022-08-18T13:54:31.222Z,10.10
2022-08-18T13:56:58.736Z,9.00
2022-08-18T13:59:27.096Z,9.20
2022-08-18T14:01:53.887Z,9.40
2022-08-18T14:04:22.385Z,8.77
2022-08-18T14:06:57.349Z,9.40
2022-08-18T14:09:35.916Z,10.63
2022-08-18T14:12:16.033Z,10.60
2022-08-18T14:14:55.251Z,11.23
2022-08-18T14:17:23.526Z,10.70
2022-08-18T14:20:21.151Z,8.90
2022-08-18T14:23:09.929Z,9.60
2022-08-18T14:25:55.645Z,10.17
2022-08-18T14:28:24.885Z,9.63
2022-08-18T14:30:54.528Z,9.13
2022-08-18T14:33:34.293Z,8.70
2022-08-18T14:36:10.352Z,9.00
2022-08-18T14:38:38.378Z,9.43
2022-08-18T14:41:07.846Z,8.93
2022-08-18T14:44:11.079Z,8.80
2022-08-18T14:46:23.474Z,9.57
2022-08-18T14:48:57.323Z,9.43
2022-08-18T14:51:27.016Z,9.23
2022-08-18T14:53:54.528Z,8.97
2022-08-18T14:56:22.491Z,9.20
2022-08-18T14:58:51.141Z,9.13
2022-08-18T15:01:18.346Z,9.23
2022-08-18T15:03:45.003Z,9.23
2022-08-18T15:06:17.261Z,9.17
2022-08-18T15:08:54.106Z,9.10
2022-08-18T15:11:23.273Z,8.60
2022-08-18T15:13:51.434Z,9.40
2022-08-18T15:16:21.806Z,8.33
2022-08-18T15:18:53.807Z,8.00
2022-08-18T15:21:39.170Z,7.97
2022-08-18T15:24:25.951Z,8.13
2022-08-18T15:27:03.278Z,9.40
2022-08-18T15:29:33.660Z,8.17
2022-08-18T15:32:06.166Z,8.47
2022-08-18T15:34:46.201Z,8.70
2022-08-18T15:37:15.904Z,7.90
2022-08-18T15:39:46.735Z,8.57
2022-08-18T15:42:19.163Z,8.97
2022-08-18T15:44:47.323Z,8.80
2022-08-18T15:47:20.816Z,9.23
2022-08-18T15:49:48.780Z,9.10
2022-08-18T15:52:17.928Z,8.70
2022-08-18T15:54:50.430Z,8.93
2022-08-18T15:57:39.083Z,9.00
2022-08-18T16:00:05.811Z,8.63
2022-08-18T16:02:39.240Z,8.10
2022-08-18T16:05:10.196Z,7.13
2022-08-18T16:07:41.384Z,8.43
2022-08-18T16:10:22.073Z,7.90
2022-08-18T16:12:48.769Z,8.27
2022-08-18T16:15:19.690Z,8.30
2022-08-18T16:17:49.436Z,8.03
2022-08-18T16:20:16.506Z,8.10
2022-08-18T16:22:43.487Z,8.07
2022-08-18T16:25:10.573Z,8.40
2022-08-18T16:27:41.465Z,8.23
2022-08-18T16:30:10.544Z,8.00
2022-08-18T16:32:37.163Z,8.10
2022-08-18T16:35:04.893Z,7.90
2022-08-18T16:37:31.530Z,8.40
2022-08-18T16:39:58.339Z,8.47
2022-08-18T16:42:24.968Z,8.07
2022-08-18T16:44:51.524Z,7.70
2022-08-18T16:47:18.396Z,7.30
2022-08-18T16:49:45.855Z,7.80
2022-08-18T16:52:13.659Z,8.40
2022-08-18T16:54:40.273Z,8.23
2022-08-18T16:57:07.000Z,7.90
2022-08-18T16:59:51.906Z,8.27
2022-08-18T17:02:37.281Z,8.20
2022-08-18T17:05:04.221Z,8.17
2022-08-18T17:07:32.081Z,7.83
2022-08-18T17:09:58.805Z,8.30
2022-08-18T17:12:26.321Z,7.97
2022-08-18T17:14:54.235Z,8.00
2022-08-18T17:17:21.237Z,8.93
2022-08-18T17:19:51.908Z,8.00
2022-08-18T17:22:18.609Z,8.40
2022-08-18T17:24:49.449Z,8.67
2022-08-18T17:27:26.558Z,8.53
2022-08-18T17:30:07.841Z,9.03
2022-08-18T17:32:42.016Z,8.73
2022-08-18T17:35:14.520Z,8.60
2022-08-18T17:37:49.378Z,8.87
2022-08-18T17:40:28.683Z,8.23
2022-08-18T17:42:57.247Z,8.17
2022-08-18T17:45:23.938Z,9.10
2022-08-18T17:48:08.822Z,8.87
2022-08-18T17:50:58.465Z,8.97
2022-08-18T17:53:25.497Z,9.03
2022-08-18T17:56:00.755Z,8.77
2022-08-18T17:58:40.490Z,9.40
2022-08-18T18:01:09.150Z,9.67
2022-08-18T18:03:36.365Z,9.77
2022-08-18T18:06:10.227Z,8.47
2022-08-18T18:08:52.340Z,8.80
2022-08-18T18:11:26.059Z,8.23
2022-08-18T18:13:52.782Z,8.90
2022-08-18T18:16:23.958Z,8.93
2022-08-18T18:19:01.186Z,9.03
2022-08-18T18:22:00.405Z,9.00
2022-08-18T18:24:17.138Z,8.27
2022-08-18T18:26:52.194Z,8.43
2022-08-18T18:29:29.066Z,8.77
2022-08-18T18:31:58.629Z,8.20
2022-08-18T18:34:40.485Z,8.57
2022-08-18T18:37:25.781Z,8.70
2022-08-18T18:39:57.743Z,8.83
2022-08-18T18:42:27.682Z,9.07
2022-08-18T18:44:58.212Z,8.30
2022-08-18T18:47:42.567Z,8.50
2022-08-18T18:50:14.746Z,7.97
2022-08-18T18:52:49.775Z,8.63
2022-08-18T18:55:20.044Z,10.00
2022-08-18T18:58:18.422Z,9.00
2022-08-18T19:00:58.454Z,8.63
2022-08-18T19:03:39.908Z,9.00
2022-08-18T19:06:29.354Z,8.90
2022-08-18T19:09:04.891Z,9.57
2022-08-18T19:11:41.046Z,9.13
2022-08-18T19:14:14.031Z,8.83
2022-08-18T19:16:51.665Z,8.50
2022-08-18T19:19:37.453Z,8.70
2022-08-18T19:22:21.498Z,8.60
2022-08-18T19:24:57.139Z,9.17
2022-08-18T19:27:28.526Z,8.87
2022-08-18T19:29:58.378Z,8.47
2022-08-18T19:32:33.090Z,8.60
2022-08-18T19:35:04.396Z,8.50
2022-08-18T19:37:44.769Z,7.87
2022-08-18T19:40:49.133Z,8.13
2022-08-18T19:43:24.881Z,8.80
2022-08-18T19:45:57.843Z,8.60
2022-08-18T19:48:51.429Z,8.67
2022-08-18T19:51:29.715Z,8.10
2022-08-18T19:54:04.174Z,7.77
2022-08-18T19:56:51.780Z,7.43
2022-08-18T19:59:33.960Z,7.93
2022-08-18T20:02:10.400Z,7.60
2022-08-18T20:05:14.829Z,7.13
2022-08-18T20:07:55.636Z,7.63
2022-08-18T20:10:31.302Z,7.67
2022-08-18T20:13:13.438Z,7.60
2022-08-18T20:16:11.895Z,7.70
2022-08-18T20:18:49.063Z,7.73
2022-08-18T20:21:15.697Z,7.50
2022-08-18T20:24:04.988Z,8.50
2022-08-18T20:26:40.289Z,7.93
2022-08-18T20:29:11.043Z,7.80
2022-08-18T20:31:54.144Z,8.00
2022-08-18T20:34:23.564Z,7.50
2022-08-18T20:36:51.750Z,7.70
2022-08-18T20:39:40.189Z,7.87
2022-08-18T20:42:35.482Z,8.23
2022-08-18T20:45:34.869Z,8.17
2022-08-18T20:48:20.600Z,8.13
2022-08-18T20:51:10.147Z,8.10
2022-08-18T20:54:13.114Z,8.27
2022-08-18T20:56:44.740Z,8.37
2022-08-18T20:59:19.896Z,8.87
2022-08-18T21:02:08.462Z,8.67
2022-08-18T21:04:50.073Z,8.70
2022-08-18T21:07:37.307Z,9.10
2022-08-18T21:10:19.005Z,8.47
2022-08-18T21:12:56.486Z,8.80
2022-08-18T21:15:26.862Z,8.93
2022-08-18T21:18:16.789Z,9.37
2022-08-18T21:20:43.532Z,8.73
2022-08-18T21:23:13.000Z,9.20
2022-08-18T21:26:06.266Z,8.43
2022-08-18T21:28:35.865Z,8.90
2022-08-18T21:31:41.653Z,9.70
2022-08-18T21:33:59.942Z,9.27
2022-08-18T21:36:31.643Z,10.33
2022-08-18T21:39:06.509Z,9.87
2022-08-18T21:41:33.814Z,9.10
2022-08-18T21:44:08.198Z,9.33
2022-08-18T21:46:34.887Z,9.77
2022-08-18T21:49:02.629Z,9.83
2022-08-18T21:51:49.043Z,10.30
2022-08-18T21:54:18.506Z,10.17
2022-08-18T21:56:45.164Z,10.67
2022-08-18T21:59:20.612Z,10.43
2022-08-18T22:01:53.102Z,9.70
2022-08-18T22:04:36.223Z,10.23
2022-08-18T22:07:06.759Z,10.67
2022-08-18T22:10:41.377Z,11.60
2022-08-18T22:13:35.806Z,10.70
2022-08-18T22:16:41.318Z,11.57
2022-08-18T22:19:28.176Z,11.83
2022-08-18T22:22:01.902Z,10.97
2022-08-18T22:24:35.727Z,12.23
2022-08-18T22:27:07.322Z,11.30
2022-08-18T22:29:51.015Z,11.30
2022-08-18T22:32:20.085Z,12.00
2022-08-18T22:34:48.232Z,11.57
2022-08-18T22:37:19.270Z,12.20
2022-08-18T22:40:02.994Z,11.90
2022-08-18T22:42:33.156Z,12.07
2022-08-18T22:45:04.571Z,12.37
2022-08-18T22:47:40.529Z,11.93
2022-08-18T22:50:11.133Z,11.73
2022-08-18T22:52:46.616Z,12.53
2022-08-18T22:55:15.456Z,12.07
2022-08-18T22:57:46.948Z,12.40
2022-08-18T23:00:16.902Z,12.13
2022-08-18T23:02:47.749Z,12.60
2022-08-18T23:05:14.690Z,12.60
2022-08-18T23:07:42.537Z,12.77
2022-08-18T23:10:13.566Z,12.67
2022-08-18T23:12:41.253Z,13.03
2022-08-18T23:15:11.642Z,12.43
2022-08-18T23:17:39.000Z,11.57
2022-08-18T23:20:09.315Z,12.30
2022-08-18T23:22:39.065Z,13.30
2022-08-18T23:25:09.150Z,11.50
2022-08-18T23:27:36.651Z,11.93
2022-08-18T23:30:04.773Z,12.47
2022-08-18T23:32:32.012Z,11.73
2022-08-18T23:34:59.143Z,13.00
2022-08-18T23:37:25.787Z,12.30
2022-08-18T23:39:52.445Z,12.60
2022-08-18T23:42:19.084Z,13.10
2022-08-18T23:44:49.917Z,13.03
2022-08-18T23:47:20.756Z,12.83
2022-08-18T23:49:47.857Z,12.23
2022-08-18T23:52:14.454Z,13.27
2022-08-18T23:54:41.022Z,13.63
2022-08-18T23:57:07.664Z,12.90
2022-08-18T23:59:34.236Z,13.27
